sensor_id;sensor_type;location;lat;lon;timestamp;pressure;altitude;pressure_sealevel;temperature;humidity
42411;BME280;28056;51.112;0.984;2023-12-20T00:01:02;101161.27;;;1.79;100.00
42411;BME280;28056;51.112;0.984;2023-12-20T00:03:30;101156.97;;;1.53;100.00
42411;BME280;28056;51.112;0.984;2023-12-20T00:05:57;101157.40;;;1.72;100.00
42411;BME280;28056;51.112;0.984;2023-12-20T00:08:24;101154.34;;;1.05;100.00
42411;BME280;28056;51.112;0.984;2023-12-20T00:10:52;101151.66;;;1.16;100.00
42411;BME280;28056;51.112;0.984;2023-12-20T00:13:19;101155.01;;;0.91;100.00
42411;BME280;28056;51.112;0.984;2023-12-20T00:15:46;101162.45;;;1.16;100.00
42411;BME280;28056;51.112;0.984;2023-12-20T00:18:13;101157.31;;;1.25;100.00
42411;BME280;28056;51.112;0.984;2023-12-20T00:20:40;101156.84;;;1.52;100.00
42411;BME280;28056;51.112;0.984;2023-12-20T00:23:07;101160.26;;;1.67;100.00
42411;BME280;28056;51.112;0.984;2023-12-20T00:25:35;101164.12;;;1.42;100.00
42411;BME280;28056;51.112;0.984;2023-12-20T00:28:03;101162.64;;;1.44;100.00
42411;BME280;28056;51.112;0.984;2023-12-20T00:30:30;101169.87;;;1.24;100.00
42411;BME280;28056;51.112;0.984;2023-12-20T00:32:58;101173.10;;;1.60;100.00
42411;BME280;28056;51.112;0.984;2023-12-20T00:35:25;101176.86;;;1.34;100.00
42411;BME280;28056;51.112;0.984;2023-12-20T00:37:52;101179.58;;;1.61;100.00
42411;BME280;28056;51.112;0.984;2023-12-20T00:40:19;101184.37;;;1.35;100.00
42411;BME280;28056;51.112;0.984;2023-12-20T00:42:46;101182.39;;;1.62;100.00
42411;BME280;28056;51.112;0.984;2023-12-20T00:45:13;101179.95;;;1.48;100.00
42411;BME280;28056;51.112;0.984;2023-12-20T00:47:40;101178.11;;;1.43;100.00
42411;BME280;28056;51.112;0.984;2023-12-20T00:50:08;101181.08;;;1.65;100.00
42411;BME280;28056;51.112;0.984;2023-12-20T00:52:36;101176.00;;;1.26;100.00
42411;BME280;28056;51.112;0.984;2023-12-20T00:55:04;101169.74;;;1.44;100.00
42411;BME280;28056;51.112;0.984;2023-12-20T00:57:31;101171.90;;;1.27;100.00
42411;BME280;28056;51.112;0.984;2023-12-20T00:59:58;101165.24;;;1.28;100.00
42411;BME280;28056;51.112;0.984;2023-12-20T01:04:48;101169.42;;;0.62;100.00
42411;BME280;28056;51.112;0.984;2023-12-20T01:07:15;101171.27;;;0.82;100.00
42411;BME280;28056;51.112;0.984;2023-12-20T01:09:44;101169.73;;;0.78;100.00
42411;BME280;28056;51.112;0.984;2023-12-20T01:12:11;101169.73;;;0.57;100.00
42411;BME280;28056;51.112;0.984;2023-12-20T01:14:38;101168.93;;;1.26;100.00
42411;BME280;28056;51.112;0.984;2023-12-20T01:17:05;101161.35;;;1.83;100.00
42411;BME280;28056;51.112;0.984;2023-12-20T01:19:32;101154.36;;;2.20;100.00
42411;BME280;28056;51.112;0.984;2023-12-20T01:21:59;101156.76;;;2.36;100.00
42411;BME280;28056;51.112;0.984;2023-12-20T01:24:26;101151.89;;;2.05;100.00
42411;BME280;28056;51.112;0.984;2023-12-20T01:26:53;101153.77;;;2.05;100.00
42411;BME280;28056;51.112;0.984;2023-12-20T01:29:20;101165.56;;;2.07;100.00
42411;BME280;28056;51.112;0.984;2023-12-20T01:31:47;101167.67;;;1.91;100.00
42411;BME280;28056;51.112;0.984;2023-12-20T01:34:15;101166.21;;;2.28;100.00
42411;BME280;28056;51.112;0.984;2023-12-20T01:36:42;101163.63;;;2.74;100.00
42411;BME280;28056;51.112;0.984;2023-12-20T01:39:10;101161.42;;;2.59;100.00
42411;BME280;28056;51.112;0.984;2023-12-20T01:41:37;101158.56;;;2.65;100.00
42411;BME280;28056;51.112;0.984;2023-12-20T01:44:04;101162.78;;;2.45;100.00
42411;BME280;28056;51.112;0.984;2023-12-20T01:46:31;101164.96;;;2.29;100.00
42411;BME280;28056;51.112;0.984;2023-12-20T01:48:59;101163.44;;;2.22;100.00
42411;BME280;28056;51.112;0.984;2023-12-20T01:51:27;101165.14;;;2.06;100.00
42411;BME280;28056;51.112;0.984;2023-12-20T01:53:55;101167.48;;;2.64;100.00
42411;BME280;28056;51.112;0.984;2023-12-20T01:56:25;101163.04;;;2.14;100.00
42411;BME280;28056;51.112;0.984;2023-12-20T01:58:54;101162.19;;;1.79;100.00
42411;BME280;28056;51.112;0.984;2023-12-20T02:01:23;101157.80;;;1.98;100.00
42411;BME280;28056;51.112;0.984;2023-12-20T02:03:51;101161.26;;;2.05;100.00
42411;BME280;28056;51.112;0.984;2023-12-20T02:06:19;101164.05;;;2.45;100.00
42411;BME280;28056;51.112;0.984;2023-12-20T02:08:49;101166.62;;;2.00;100.00
42411;BME280;28056;51.112;0.984;2023-12-20T02:11:16;101167.96;;;1.69;100.00
42411;BME280;28056;51.112;0.984;2023-12-20T02:13:44;101167.64;;;1.63;100.00
42411;BME280;28056;51.112;0.984;2023-12-20T02:16:11;101162.80;;;2.01;100.00
42411;BME280;28056;51.112;0.984;2023-12-20T02:18:39;101159.28;;;1.96;100.00
42411;BME280;28056;51.112;0.984;2023-12-20T02:21:06;101159.08;;;1.96;100.00
42411;BME280;28056;51.112;0.984;2023-12-20T02:23:33;101158.21;;;1.69;100.00
42411;BME280;28056;51.112;0.984;2023-12-20T02:26:00;101155.95;;;1.91;100.00
42411;BME280;28056;51.112;0.984;2023-12-20T02:28:29;101156.79;;;1.82;100.00
42411;BME280;28056;51.112;0.984;2023-12-20T02:30:56;101153.65;;;1.75;100.00
42411;BME280;28056;51.112;0.984;2023-12-20T02:33:23;101145.83;;;1.92;100.00
42411;BME280;28056;51.112;0.984;2023-12-20T02:35:50;101148.06;;;2.42;100.00
42411;BME280;28056;51.112;0.984;2023-12-20T02:38:18;101146.96;;;1.97;100.00
42411;BME280;28056;51.112;0.984;2023-12-20T02:40:45;101152.53;;;2.02;100.00
42411;BME280;28056;51.112;0.984;2023-12-20T02:43:12;101149.07;;;1.93;100.00
42411;BME280;28056;51.112;0.984;2023-12-20T02:45:39;101147.25;;;1.40;100.00
42411;BME280;28056;51.112;0.984;2023-12-20T02:48:06;101148.96;;;2.04;100.00
42411;BME280;28056;51.112;0.984;2023-12-20T02:50:34;101141.94;;;2.17;100.00
42411;BME280;28056;51.112;0.984;2023-12-20T02:53:01;101137.26;;;2.45;100.00
42411;BME280;28056;51.112;0.984;2023-12-20T02:55:28;101135.81;;;2.56;100.00
42411;BME280;28056;51.112;0.984;2023-12-20T02:57:55;101135.10;;;2.39;100.00
42411;BME280;28056;51.112;0.984;2023-12-20T03:00:22;101132.52;;;2.63;100.00
42411;BME280;28056;51.112;0.984;2023-12-20T03:02:50;101138.40;;;2.44;100.00
42411;BME280;28056;51.112;0.984;2023-12-20T03:05:17;101137.52;;;2.23;100.00
42411;BME280;28056;51.112;0.984;2023-12-20T03:07:44;101134.35;;;2.30;100.00
42411;BME280;28056;51.112;0.984;2023-12-20T03:10:11;101132.09;;;2.27;100.00
42411;BME280;28056;51.112;0.984;2023-12-20T03:12:38;101133.64;;;1.81;100.00
42411;BME280;28056;51.112;0.984;2023-12-20T03:15:06;101137.73;;;2.18;100.00
42411;BME280;28056;51.112;0.984;2023-12-20T03:17:33;101134.57;;;2.49;100.00
42411;BME280;28056;51.112;0.984;2023-12-20T03:20:00;101130.56;;;2.67;100.00
42411;BME280;28056;51.112;0.984;2023-12-20T03:22:28;101131.89;;;2.83;100.00
42411;BME280;28056;51.112;0.984;2023-12-20T03:24:55;101133.70;;;2.99;100.00
42411;BME280;28056;51.112;0.984;2023-12-20T03:27:22;101135.86;;;2.34;100.00
42411;BME280;28056;51.112;0.984;2023-12-20T03:29:50;101140.29;;;2.62;100.00
42411;BME280;28056;51.112;0.984;2023-12-20T03:32:17;101140.92;;;2.37;100.00
42411;BME280;28056;51.112;0.984;2023-12-20T03:34:44;101136.89;;;2.09;100.00
42411;BME280;28056;51.112;0.984;2023-12-20T03:37:11;101132.81;;;1.81;100.00
42411;BME280;28056;51.112;0.984;2023-12-20T03:39:38;101124.35;;;1.97;100.00
42411;BME280;28056;51.112;0.984;2023-12-20T03:42:06;101128.62;;;1.65;100.00
42411;BME280;28056;51.112;0.984;2023-12-20T03:44:33;101128.95;;;1.82;100.00
42411;BME280;28056;51.112;0.984;2023-12-20T03:47:00;101129.39;;;1.75;100.00
42411;BME280;28056;51.112;0.984;2023-12-20T03:49:28;101131.53;;;1.29;100.00
42411;BME280;28056;51.112;0.984;2023-12-20T03:51:56;101129.30;;;1.57;100.00
42411;BME280;28056;51.112;0.984;2023-12-20T03:54:24;101124.94;;;1.90;100.00
42411;BME280;28056;51.112;0.984;2023-12-20T03:56:52;101126.83;;;2.49;100.00
42411;BME280;28056;51.112;0.984;2023-12-20T03:59:19;101130.85;;;2.11;100.00
42411;BME280;28056;51.112;0.984;2023-12-20T04:01:47;101132.28;;;2.53;100.00
42411;BME280;28056;51.112;0.984;2023-12-20T04:04:15;101135.05;;;2.38;100.00
42411;BME280;28056;51.112;0.984;2023-12-20T04:06:42;101133.44;;;2.05;100.00
42411;BME280;28056;51.112;0.984;2023-12-20T04:09:09;101131.09;;;2.52;100.00
42411;BME280;28056;51.112;0.984;2023-12-20T04:11:36;101131.95;;;2.17;100.00
42411;BME280;28056;51.112;0.984;2023-12-20T04:14:04;101132.78;;;2.23;100.00
42411;BME280;28056;51.112;0.984;2023-12-20T04:16:31;101136.28;;;2.42;100.00
42411;BME280;28056;51.112;0.984;2023-12-20T04:18:58;101138.55;;;2.46;100.00
42411;BME280;28056;51.112;0.984;2023-12-20T04:21:25;101137.86;;;2.70;100.00
42411;BME280;28056;51.112;0.984;2023-12-20T04:23:52;101132.14;;;2.26;100.00
42411;BME280;28056;51.112;0.984;2023-12-20T04:26:19;101136.07;;;2.22;100.00
42411;BME280;28056;51.112;0.984;2023-12-20T04:28:46;101139.57;;;2.07;100.00
42411;BME280;28056;51.112;0.984;2023-12-20T04:31:13;101141.98;;;2.28;100.00
42411;BME280;28056;51.112;0.984;2023-12-20T04:33:40;101140.97;;;1.47;100.00
42411;BME280;28056;51.112;0.984;2023-12-20T04:36:08;101140.27;;;1.73;100.00
42411;BME280;28056;51.112;0.984;2023-12-20T04:38:35;101134.56;;;1.33;100.00
42411;BME280;28056;51.112;0.984;2023-12-20T04:41:03;101131.38;;;1.15;100.00
42411;BME280;28056;51.112;0.984;2023-12-20T04:43:30;101131.33;;;1.22;100.00
42411;BME280;28056;51.112;0.984;2023-12-20T04:45:57;101129.55;;;1.20;100.00
42411;BME280;28056;51.112;0.984;2023-12-20T04:48:25;101124.20;;;1.31;100.00
42411;BME280;28056;51.112;0.984;2023-12-20T04:50:51;101134.46;;;0.93;100.00
42411;BME280;28056;51.112;0.984;2023-12-20T04:53:19;101131.70;;;1.43;100.00
42411;BME280;28056;51.112;0.984;2023-12-20T04:55:46;101130.30;;;1.66;100.00
42411;BME280;28056;51.112;0.984;2023-12-20T04:58:13;101130.04;;;1.43;100.00
42411;BME280;28056;51.112;0.984;2023-12-20T05:00:40;101129.74;;;1.51;100.00
42411;BME280;28056;51.112;0.984;2023-12-20T05:03:08;101124.44;;;1.67;100.00
42411;BME280;28056;51.112;0.984;2023-12-20T05:05:35;101124.63;;;1.74;100.00
42411;BME280;28056;51.112;0.984;2023-12-20T05:08:03;101124.48;;;2.26;100.00
42411;BME280;28056;51.112;0.984;2023-12-20T05:10:31;101128.58;;;1.88;100.00
42411;BME280;28056;51.112;0.984;2023-12-20T05:12:58;101130.65;;;1.81;100.00
42411;BME280;28056;51.112;0.984;2023-12-20T05:15:25;101131.73;;;1.80;100.00
42411;BME280;28056;51.112;0.984;2023-12-20T05:17:52;101130.78;;;1.74;100.00
42411;BME280;28056;51.112;0.984;2023-12-20T05:20:19;101134.30;;;1.50;100.00
42411;BME280;28056;51.112;0.984;2023-12-20T05:22:46;101137.86;;;1.92;100.00
42411;BME280;28056;51.112;0.984;2023-12-20T05:25:13;101134.28;;;2.03;100.00
42411;BME280;28056;51.112;0.984;2023-12-20T05:27:40;101132.00;;;1.95;100.00
42411;BME280;28056;51.112;0.984;2023-12-20T05:30:08;101130.48;;;2.20;100.00
42411;BME280;28056;51.112;0.984;2023-12-20T05:32:36;101129.93;;;1.66;100.00
42411;BME280;28056;51.112;0.984;2023-12-20T05:35:04;101130.10;;;1.81;100.00
42411;BME280;28056;51.112;0.984;2023-12-20T05:37:31;101121.66;;;2.32;100.00
42411;BME280;28056;51.112;0.984;2023-12-20T05:39:58;101121.37;;;1.95;100.00
42411;BME280;28056;51.112;0.984;2023-12-20T05:42:26;101120.68;;;2.12;100.00
42411;BME280;28056;51.112;0.984;2023-12-20T05:44:53;101119.38;;;2.20;100.00
42411;BME280;28056;51.112;0.984;2023-12-20T05:47:20;101119.54;;;1.76;100.00
42411;BME280;28056;51.112;0.984;2023-12-20T05:49:47;101122.02;;;2.32;100.00
42411;BME280;28056;51.112;0.984;2023-12-20T05:52:15;101110.81;;;2.51;100.00
42411;BME280;28056;51.112;0.984;2023-12-20T05:54:42;101107.10;;;2.25;100.00
42411;BME280;28056;51.112;0.984;2023-12-20T05:57:09;101100.49;;;2.53;100.00
42411;BME280;28056;51.112;0.984;2023-12-20T05:59:36;101104.75;;;1.75;100.00
42411;BME280;28056;51.112;0.984;2023-12-20T06:02:04;101097.26;;;1.90;100.00
42411;BME280;28056;51.112;0.984;2023-12-20T06:04:32;101099.89;;;1.83;100.00
42411;BME280;28056;51.112;0.984;2023-12-20T06:06:59;101108.65;;;1.86;100.00
42411;BME280;28056;51.112;0.984;2023-12-20T06:09:27;101112.16;;;1.65;100.00
42411;BME280;28056;51.112;0.984;2023-12-20T06:11:54;101108.83;;;1.81;100.00
42411;BME280;28056;51.112;0.984;2023-12-20T06:14:21;101098.55;;;1.59;100.00
42411;BME280;28056;51.112;0.984;2023-12-20T06:16:49;101093.58;;;1.75;100.00
42411;BME280;28056;51.112;0.984;2023-12-20T06:19:16;101089.28;;;1.60;100.00
42411;BME280;28056;51.112;0.984;2023-12-20T06:21:43;101090.37;;;1.46;100.00
42411;BME280;28056;51.112;0.984;2023-12-20T06:24:11;101089.68;;;1.76;100.00
42411;BME280;28056;51.112;0.984;2023-12-20T06:26:38;101088.85;;;1.83;100.00
42411;BME280;28056;51.112;0.984;2023-12-20T06:29:05;101094.97;;;1.54;100.00
42411;BME280;28056;51.112;0.984;2023-12-20T06:31:33;101091.18;;;1.56;100.00
42411;BME280;28056;51.112;0.984;2023-12-20T06:34:00;101098.27;;;1.74;100.00
42411;BME280;28056;51.112;0.984;2023-12-20T06:36:28;101101.40;;;2.07;100.00
42411;BME280;28056;51.112;0.984;2023-12-20T06:38:56;101096.44;;;2.56;100.00
42411;BME280;28056;51.112;0.984;2023-12-20T06:41:23;101101.24;;;2.41;100.00
42411;BME280;28056;51.112;0.984;2023-12-20T06:43:51;101104.80;;;2.56;100.00
42411;BME280;28056;51.112;0.984;2023-12-20T06:46:18;101108.69;;;2.48;100.00
42411;BME280;28056;51.112;0.984;2023-12-20T06:48:46;101109.96;;;2.38;100.00
42411;BME280;28056;51.112;0.984;2023-12-20T06:51:15;101106.09;;;2.81;100.00
42411;BME280;28056;51.112;0.984;2023-12-20T06:53:42;101105.97;;;2.06;100.00
42411;BME280;28056;51.112;0.984;2023-12-20T06:56:11;101100.85;;;2.21;100.00
42411;BME280;28056;51.112;0.984;2023-12-20T06:58:38;101101.19;;;2.54;100.00
42411;BME280;28056;51.112;0.984;2023-12-20T07:01:11;101095.45;;;2.27;100.00
42411;BME280;28056;51.112;0.984;2023-12-20T07:03:38;101096.42;;;2.45;100.00
42411;BME280;28056;51.112;0.984;2023-12-20T07:06:05;101098.77;;;3.02;100.00
42411;BME280;28056;51.112;0.984;2023-12-20T07:08:33;101099.27;;;2.73;100.00
42411;BME280;28056;51.112;0.984;2023-12-20T07:11:01;101097.45;;;2.69;100.00
42411;BME280;28056;51.112;0.984;2023-12-20T07:13:29;101099.46;;;2.59;100.00
42411;BME280;28056;51.112;0.984;2023-12-20T07:15:57;101105.60;;;2.65;100.00
42411;BME280;28056;51.112;0.984;2023-12-20T07:18:24;101113.61;;;2.27;100.00
42411;BME280;28056;51.112;0.984;2023-12-20T07:20:51;101101.95;;;2.54;100.00
42411;BME280;28056;51.112;0.984;2023-12-20T07:23:18;101095.04;;;1.79;100.00
42411;BME280;28056;51.112;0.984;2023-12-20T07:25:45;101093.83;;;1.73;100.00
42411;BME280;28056;51.112;0.984;2023-12-20T07:28:12;101095.31;;;1.98;100.00
42411;BME280;28056;51.112;0.984;2023-12-20T07:30:40;101095.35;;;2.14;100.00
42411;BME280;28056;51.112;0.984;2023-12-20T07:33:07;101103.34;;;2.09;100.00
42411;BME280;28056;51.112;0.984;2023-12-20T07:35:34;101115.81;;;1.86;100.00
42411;BME280;28056;51.112;0.984;2023-12-20T07:38:02;101118.00;;;1.92;100.00
42411;BME280;28056;51.112;0.984;2023-12-20T07:40:29;101108.62;;;2.39;100.00
42411;BME280;28056;51.112;0.984;2023-12-20T07:42:57;101102.58;;;1.75;100.00
42411;BME280;28056;51.112;0.984;2023-12-20T07:45:24;101107.95;;;1.51;100.00
42411;BME280;28056;51.112;0.984;2023-12-20T07:47:51;101108.74;;;1.44;100.00
42411;BME280;28056;51.112;0.984;2023-12-20T07:50:19;101115.73;;;1.65;100.00
42411;BME280;28056;51.112;0.984;2023-12-20T07:52:46;101114.98;;;1.69;100.00
42411;BME280;28056;51.112;0.984;2023-12-20T07:55:13;101122.97;;;1.58;100.00
42411;BME280;28056;51.112;0.984;2023-12-20T07:57:40;101116.71;;;1.53;100.00
42411;BME280;28056;51.112;0.984;2023-12-20T08:00:08;101111.91;;;1.56;100.00
42411;BME280;28056;51.112;0.984;2023-12-20T08:02:35;101106.61;;;1.32;100.00
42411;BME280;28056;51.112;0.984;2023-12-20T08:05:03;101109.62;;;1.52;100.00
42411;BME280;28056;51.112;0.984;2023-12-20T08:07:31;101108.74;;;1.47;100.00
42411;BME280;28056;51.112;0.984;2023-12-20T08:09:58;101105.88;;;1.65;100.00
42411;BME280;28056;51.112;0.984;2023-12-20T08:12:25;101114.86;;;1.93;100.00
42411;BME280;28056;51.112;0.984;2023-12-20T08:14:52;101122.79;;;2.06;100.00
42411;BME280;28056;51.112;0.984;2023-12-20T08:17:19;101128.15;;;2.00;100.00
42411;BME280;28056;51.112;0.984;2023-12-20T08:19:46;101124.59;;;2.06;100.00
42411;BME280;28056;51.112;0.984;2023-12-20T08:22:13;101132.11;;;2.20;100.00
42411;BME280;28056;51.112;0.984;2023-12-20T08:24:40;101133.05;;;2.36;100.00
42411;BME280;28056;51.112;0.984;2023-12-20T08:27:07;101126.87;;;2.41;100.00
42411;BME280;28056;51.112;0.984;2023-12-20T08:29:34;101128.45;;;2.21;100.00
42411;BME280;28056;51.112;0.984;2023-12-20T08:32:02;101126.93;;;2.45;100.00
42411;BME280;28056;51.112;0.984;2023-12-20T08:34:29;101132.35;;;2.52;100.00
42411;BME280;28056;51.112;0.984;2023-12-20T08:36:57;101145.25;;;2.47;100.00
42411;BME280;28056;51.112;0.984;2023-12-20T08:39:24;101150.18;;;2.54;100.00
42411;BME280;28056;51.112;0.984;2023-12-20T08:41:51;101149.17;;;2.59;100.00
42411;BME280;28056;51.112;0.984;2023-12-20T08:44:18;101139.12;;;2.49;100.00
42411;BME280;28056;51.112;0.984;2023-12-20T08:46:45;101128.07;;;2.62;100.00
42411;BME280;28056;51.112;0.984;2023-12-20T08:49:12;101132.24;;;2.95;100.00
42411;BME280;28056;51.112;0.984;2023-12-20T08:51:39;101140.65;;;3.12;100.00
42411;BME280;28056;51.112;0.984;2023-12-20T08:54:06;101138.32;;;2.92;100.00
42411;BME280;28056;51.112;0.984;2023-12-20T08:56:33;101134.39;;;3.04;100.00
42411;BME280;28056;51.112;0.984;2023-12-20T08:59:00;101132.64;;;3.29;100.00
42411;BME280;28056;51.112;0.984;2023-12-20T09:01:28;101132.00;;;3.66;100.00
42411;BME280;28056;51.112;0.984;2023-12-20T09:03:55;101134.96;;;3.65;100.00
42411;BME280;28056;51.112;0.984;2023-12-20T09:06:22;101135.74;;;3.59;100.00
42411;BME280;28056;51.112;0.984;2023-12-20T09:08:49;101139.98;;;3.78;100.00
42411;BME280;28056;51.112;0.984;2023-12-20T09:11:16;101145.45;;;3.54;100.00
42411;BME280;28056;51.112;0.984;2023-12-20T09:13:43;101142.03;;;3.32;100.00
42411;BME280;28056;51.112;0.984;2023-12-20T09:16:10;101140.85;;;3.35;100.00
42411;BME280;28056;51.112;0.984;2023-12-20T09:18:37;101136.85;;;3.65;100.00
42411;BME280;28056;51.112;0.984;2023-12-20T09:21:04;101125.76;;;3.67;100.00
42411;BME280;28056;51.112;0.984;2023-12-20T09:23:31;101127.44;;;3.47;100.00
42411;BME280;28056;51.112;0.984;2023-12-20T09:25:58;101120.94;;;4.30;100.00
42411;BME280;28056;51.112;0.984;2023-12-20T09:28:25;101111.18;;;4.21;100.00
42411;BME280;28056;51.112;0.984;2023-12-20T09:30:53;101113.29;;;4.86;100.00
42411;BME280;28056;51.112;0.984;2023-12-20T09:33:19;101118.88;;;4.45;100.00
42411;BME280;28056;51.112;0.984;2023-12-20T09:35:47;101114.16;;;4.42;100.00
42411;BME280;28056;51.112;0.984;2023-12-20T09:38:14;101097.58;;;5.49;100.00
42411;BME280;28056;51.112;0.984;2023-12-20T09:40:41;101101.99;;;4.53;100.00
42411;BME280;28056;51.112;0.984;2023-12-20T09:43:11;101113.51;;;4.50;100.00
42411;BME280;28056;51.112;0.984;2023-12-20T09:45:42;101110.86;;;4.62;100.00
42411;BME280;28056;51.112;0.984;2023-12-20T09:48:11;101108.67;;;4.52;100.00
42411;BME280;28056;51.112;0.984;2023-12-20T09:50:39;101107.37;;;4.31;100.00
42411;BME280;28056;51.112;0.984;2023-12-20T09:53:10;101108.06;;;4.28;100.00
42411;BME280;28056;51.112;0.984;2023-12-20T09:55:41;101111.65;;;4.08;100.00
42411;BME280;28056;51.112;0.984;2023-12-20T09:58:09;101110.74;;;3.46;100.00
42411;BME280;28056;51.112;0.984;2023-12-20T10:00:37;101114.25;;;3.37;100.00
42411;BME280;28056;51.112;0.984;2023-12-20T10:03:06;101114.82;;;3.45;100.00
42411;BME280;28056;51.112;0.984;2023-12-20T10:05:34;101114.69;;;3.48;100.00
42411;BME280;28056;51.112;0.984;2023-12-20T10:08:02;101114.69;;;3.42;100.00
42411;BME280;28056;51.112;0.984;2023-12-20T10:10:29;101110.96;;;3.63;100.00
42411;BME280;28056;51.112;0.984;2023-12-20T10:13:05;101108.79;;;3.87;100.00
42411;BME280;28056;51.112;0.984;2023-12-20T10:15:33;101107.50;;;3.91;100.00
42411;BME280;28056;51.112;0.984;2023-12-20T10:18:01;101103.50;;;4.13;100.00
42411;BME280;28056;51.112;0.984;2023-12-20T10:20:29;101106.39;;;4.41;100.00
42411;BME280;28056;51.112;0.984;2023-12-20T10:22:57;101118.35;;;4.79;100.00
42411;BME280;28056;51.112;0.984;2023-12-20T10:25:26;101112.81;;;5.16;100.00
42411;BME280;28056;51.112;0.984;2023-12-20T10:28:10;101119.62;;;5.58;100.00
42411;BME280;28056;51.112;0.984;2023-12-20T10:30:38;101116.96;;;4.95;100.00
42411;BME280;28056;51.112;0.984;2023-12-20T10:33:06;101110.15;;;5.39;100.00
42411;BME280;28056;51.112;0.984;2023-12-20T10:35:34;101105.53;;;5.24;100.00
42411;BME280;28056;51.112;0.984;2023-12-20T10:38:04;101103.10;;;5.02;100.00
42411;BME280;28056;51.112;0.984;2023-12-20T10:40:34;101105.00;;;5.42;100.00
42411;BME280;28056;51.112;0.984;2023-12-20T10:43:03;101100.20;;;5.58;100.00
42411;BME280;28056;51.112;0.984;2023-12-20T10:45:31;101097.02;;;5.65;100.00
42411;BME280;28056;51.112;0.984;2023-12-20T10:47:58;101083.06;;;5.72;100.00
42411;BME280;28056;51.112;0.984;2023-12-20T10:50:27;101084.96;;;5.33;100.00
42411;BME280;28056;51.112;0.984;2023-12-20T10:52:55;101075.73;;;5.22;100.00
42411;BME280;28056;51.112;0.984;2023-12-20T10:55:23;101071.78;;;5.60;100.00
42411;BME280;28056;51.112;0.984;2023-12-20T10:57:51;101063.33;;;5.53;100.00
42411;BME280;28056;51.112;0.984;2023-12-20T11:00:18;101052.38;;;5.28;100.00
42411;BME280;28056;51.112;0.984;2023-12-20T11:02:49;101047.37;;;5.72;100.00
42411;BME280;28056;51.112;0.984;2023-12-20T11:05:25;101043.25;;;5.44;100.00
42411;BME280;28056;51.112;0.984;2023-12-20T11:07:57;101043.90;;;5.59;100.00
42411;BME280;28056;51.112;0.984;2023-12-20T11:10:30;101046.40;;;5.75;100.00
42411;BME280;28056;51.112;0.984;2023-12-20T11:13:05;101037.65;;;5.80;100.00
42411;BME280;28056;51.112;0.984;2023-12-20T11:15:34;101041.30;;;5.66;100.00
42411;BME280;28056;51.112;0.984;2023-12-20T11:18:02;101031.44;;;5.31;100.00
42411;BME280;28056;51.112;0.984;2023-12-20T11:20:36;101029.06;;;5.33;100.00
42411;BME280;28056;51.112;0.984;2023-12-20T11:23:04;101023.97;;;5.46;100.00
42411;BME280;28056;51.112;0.984;2023-12-20T11:25:47;101020.70;;;5.22;100.00
42411;BME280;28056;51.112;0.984;2023-12-20T11:28:14;101015.86;;;5.30;100.00
42411;BME280;28056;51.112;0.984;2023-12-20T11:30:45;101009.32;;;5.23;100.00
42411;BME280;28056;51.112;0.984;2023-12-20T11:33:14;101009.75;;;5.08;100.00
42411;BME280;28056;51.112;0.984;2023-12-20T11:35:41;101018.48;;;5.41;100.00
42411;BME280;28056;51.112;0.984;2023-12-20T11:38:09;101000.31;;;5.38;100.00
42411;BME280;28056;51.112;0.984;2023-12-20T11:40:37;100996.68;;;5.24;100.00
42411;BME280;28056;51.112;0.984;2023-12-20T11:43:05;100997.35;;;5.10;100.00
42411;BME280;28056;51.112;0.984;2023-12-20T11:45:32;100998.82;;;5.46;100.00
42411;BME280;28056;51.112;0.984;2023-12-20T11:47:59;101000.90;;;5.35;100.00
42411;BME280;28056;51.112;0.984;2023-12-20T11:50:26;100989.26;;;5.43;100.00
42411;BME280;28056;51.112;0.984;2023-12-20T11:52:54;100990.57;;;5.35;100.00
42411;BME280;28056;51.112;0.984;2023-12-20T11:55:22;100980.50;;;5.39;100.00
42411;BME280;28056;51.112;0.984;2023-12-20T11:57:50;100975.40;;;5.56;100.00
42411;BME280;28056;51.112;0.984;2023-12-20T12:00:18;100970.03;;;5.44;100.00
42411;BME280;28056;51.112;0.984;2023-12-20T12:02:56;100972.30;;;5.56;100.00
42411;BME280;28056;51.112;0.984;2023-12-20T12:05:23;100972.68;;;5.57;100.00
42411;BME280;28056;51.112;0.984;2023-12-20T12:07:50;100972.25;;;5.74;100.00
42411;BME280;28056;51.112;0.984;2023-12-20T12:10:17;100959.33;;;5.44;100.00
42411;BME280;28056;51.112;0.984;2023-12-20T12:12:45;100959.28;;;5.74;100.00
42411;BME280;28056;51.112;0.984;2023-12-20T12:15:13;100953.68;;;5.68;100.00
42411;BME280;28056;51.112;0.984;2023-12-20T12:17:41;100949.30;;;5.98;100.00
42411;BME280;28056;51.112;0.984;2023-12-20T12:20:09;100945.12;;;5.44;100.00
42411;BME280;28056;51.112;0.984;2023-12-20T12:22:36;100934.31;;;5.61;100.00
42411;BME280;28056;51.112;0.984;2023-12-20T12:25:13;100914.80;;;5.73;100.00
42411;BME280;28056;51.112;0.984;2023-12-20T12:27:41;100898.60;;;5.65;100.00
42411;BME280;28056;51.112;0.984;2023-12-20T12:30:10;100889.27;;;5.92;100.00
42411;BME280;28056;51.112;0.984;2023-12-20T12:32:37;100884.07;;;5.62;100.00
42411;BME280;28056;51.112;0.984;2023-12-20T12:35:05;100882.94;;;5.78;100.00
42411;BME280;28056;51.112;0.984;2023-12-20T12:37:34;100887.56;;;5.69;100.00
42411;BME280;28056;51.112;0.984;2023-12-20T12:40:01;100891.29;;;5.95;100.00
42411;BME280;28056;51.112;0.984;2023-12-20T12:42:31;100879.35;;;5.82;100.00
42411;BME280;28056;51.112;0.984;2023-12-20T12:44:58;100871.61;;;5.53;100.00
42411;BME280;28056;51.112;0.984;2023-12-20T12:47:25;100870.15;;;5.65;100.00
42411;BME280;28056;51.112;0.984;2023-12-20T12:49:53;100857.54;;;5.90;100.00
42411;BME280;28056;51.112;0.984;2023-12-20T12:52:20;100855.80;;;6.00;100.00
42411;BME280;28056;51.112;0.984;2023-12-20T12:54:48;100857.23;;;5.49;100.00